Time;durP1;ratioP1;P1;durP2;ratioP2;P2;SDS_P1;SDS_P2;PMS_P1;PMS_P2;Temp;Humidity;BMP_temperature;BMP_pressure;BME280_temperature;BME280_humidity;BME280_pressure;Samples;Min_cycle;Max_cycle;Signal;HPM_P1;HPM_P2
2023/04/17 00:00:00;;;;;;;15.70;12.45;;;;;;;9.13;61.74;100547.88;10477772;28;20135;-61
2023/04/17 00:05:07;;;;;;;16.02;12.57;;;;;;;9.12;61.72;100539.19;10472160;28;20567;-61
2023/04/17 00:10:10;;;;;;;15.55;12.90;;;;;;;9.11;61.94;100550.56;10470833;28;20067;-61
2023/04/17 00:15:12;;;;;;;16.60;12.30;;;;;;;9.09;62.07;100547.16;10472651;28;20048;-61
2023/04/17 00:20:14;;;;;;;14.13;12.07;;;;;;;9.20;61.97;100552.72;10472168;28;20036;-62
2023/04/17 00:25:16;;;;;;;15.60;11.98;;;;;;;9.16;61.94;100547.72;10470051;28;20327;-61
2023/04/17 00:30:17;;;;;;;17.35;12.55;;;;;;;9.15;62.22;100540.81;10477911;28;20465;-61
2023/04/17 00:35:19;;;;;;;16.10;12.73;;;;;;;9.11;62.06;100541.88;10451444;28;20044;-62
2023/04/17 00:40:21;;;;;;;15.43;12.00;;;;;;;9.17;62.25;100537.22;10470507;28;20042;-62
2023/04/17 00:45:23;;;;;;;15.13;12.40;;;;;;;9.26;62.05;100539.41;10451464;28;20044;-62
2023/04/17 00:50:27;;;;;;;18.63;13.15;;;;;;;9.26;62.03;100536.81;10488394;28;20044;-62
2023/04/17 00:55:31;;;;;;;15.00;11.00;;;;;;;9.23;62.25;100531.75;10452400;28;20055;-62
2023/04/17 01:00:33;;;;;;;16.02;12.40;;;;;;;9.21;62.19;100530.97;10469594;28;20055;-62
2023/04/17 01:05:37;;;;;;;14.10;12.00;;;;;;;9.12;62.44;100533.97;10486472;28;20041;-62
2023/04/17 01:10:39;;;;;;;17.25;12.20;;;;;;;9.14;62.44;100531.28;10469241;28;20049;-61
2023/04/17 01:15:42;;;;;;;15.85;12.55;;;;;;;9.16;62.35;100526.84;10450099;28;20052;-62
2023/04/17 01:20:44;;;;;;;17.48;12.82;;;;;;;9.15;62.27;100528.63;10471602;28;20041;-62
2023/04/17 01:25:46;;;;;;;16.10;12.70;;;;;;;9.08;62.43;100528.94;10458783;28;20083;-62
2023/04/17 01:30:48;;;;;;;15.40;12.45;;;;;;;9.00;62.78;100534.50;10478503;28;20052;-62
2023/04/17 01:35:50;;;;;;;14.05;11.93;;;;;;;8.96;62.89;100535.56;10461690;28;20128;-62
2023/04/17 01:40:51;;;;;;;16.13;12.88;;;;;;;8.97;63.07;100532.03;10476804;28;20051;-62
2023/04/17 01:45:54;;;;;;;15.18;12.70;;;;;;;9.01;62.95;100525.78;10492086;28;20048;-62
2023/04/17 01:50:55;;;;;;;19.02;13.02;;;;;;;9.04;62.89;100535.22;10462499;28;20049;-62
2023/04/17 01:56:00;;;;;;;18.23;12.15;;;;;;;9.13;62.86;100529.59;10476113;28;20052;-62
2023/04/17 02:01:03;;;;;;;20.10;13.88;;;;;;;9.18;62.74;100538.91;10462767;28;20147;-62
2023/04/17 02:06:06;;;;;;;18.65;15.82;;;;;;;9.14;62.74;100529.53;10486187;28;20396;-61
2023/04/17 02:11:09;;;;;;;18.13;13.93;;;;;;;9.06;63.04;100522.94;10485242;28;20044;-62
2023/04/17 02:16:11;;;;;;;16.27;13.50;;;;;;;9.08;63.21;100527.19;10480768;28;20182;-62
2023/04/17 02:21:15;;;;;;;16.90;12.95;;;;;;;9.09;63.07;100520.22;10469990;28;20245;-62
2023/04/17 02:26:17;;;;;;;18.67;14.07;;;;;;;9.14;62.95;100520.84;10511100;28;20127;-61
2023/04/17 02:31:19;;;;;;;18.17;14.65;;;;;;;9.09;62.97;100526.28;10478759;28;20131;-62
2023/04/17 02:36:21;;;;;;;16.52;13.05;;;;;;;9.10;62.94;100522.75;10462730;28;20131;-62
2023/04/17 02:41:23;;;;;;;18.13;13.70;;;;;;;9.12;63.04;100527.88;10463605;28;20041;-62
2023/04/17 02:46:25;;;;;;;17.33;13.13;;;;;;;9.09;63.27;100523.69;10501261;28;20532;-61
2023/04/17 02:51:26;;;;;;;17.15;13.63;;;;;;;9.08;63.18;100521.97;10482462;28;20048;-61
2023/04/17 02:56:28;;;;;;;17.85;13.77;;;;;;;9.06;63.24;100525.56;10462870;28;20055;-62
2023/04/17 03:01:32;;;;;;;16.42;14.65;;;;;;;9.12;63.20;100522.66;10479587;28;20076;-61
2023/04/17 03:06:34;;;;;;;18.63;15.50;;;;;;;9.20;62.88;100528.44;10478416;28;20044;-61
2023/04/17 03:11:37;;;;;;;18.92;13.75;;;;;;;9.14;62.97;100528.66;10488731;28;20131;-61
2023/04/17 03:16:39;;;;;;;15.73;12.43;;;;;;;9.06;63.12;100529.00;10474093;28;20732;-61
2023/04/17 03:21:41;;;;;;;14.13;12.45;;;;;;;9.04;63.45;100528.25;10455781;28;20040;-62
2023/04/17 03:26:44;;;;;;;17.88;13.55;;;;;;;9.13;63.30;100540.88;10455580;28;20054;-61
2023/04/17 03:31:51;;;;;;;18.35;14.43;;;;;;;9.18;63.19;100538.09;10458913;28;20057;-61
2023/04/17 03:36:54;;;;;;;20.52;15.25;;;;;;;9.16;63.29;100540.75;10458342;28;20516;-62
2023/04/17 03:41:56;;;;;;;21.23;15.50;;;;;;;9.08;63.35;100535.00;10488923;28;20067;-62
2023/04/17 03:46:58;;;;;;;21.23;15.50;;;;;;;9.06;63.48;100528.16;10475094;28;20051;-62
2023/04/17 03:52:02;;;;;;;18.95;14.52;;;;;;;9.02;63.64;100531.81;10467484;28;21169;-62
2023/04/17 03:57:05;;;;;;;17.02;13.80;;;;;;;9.06;63.34;100539.44;10452504;28;20064;-62
2023/04/17 04:02:07;;;;;;;21.45;15.30;;;;;;;9.07;63.44;100537.69;10475481;28;20239;-62
2023/04/17 04:07:10;;;;;;;18.73;14.35;;;;;;;9.07;63.44;100538.56;10491983;28;20409;-62
2023/04/17 04:12:12;;;;;;;18.48;14.05;;;;;;;9.10;63.36;100543.63;10472808;28;20082;-62
2023/04/17 04:17:17;;;;;;;16.17;13.93;;;;;;;8.93;63.60;100540.06;10486652;28;20482;-62
2023/04/17 04:22:20;;;;;;;21.63;14.18;;;;;;;8.83;63.72;100547.44;10442909;28;20757;-62
2023/04/17 04:27:26;;;;;;;18.35;15.55;;;;;;;8.78;63.89;100549.38;10452285;28;20049;-61
2023/04/17 04:32:29;;;;;;;18.23;15.35;;;;;;;8.78;63.91;100549.38;10483887;28;20045;-62
2023/04/17 04:37:31;;;;;;;20.00;15.85;;;;;;;8.70;64.10;100551.47;10451339;28;20625;-61
2023/04/17 04:42:48;;;;;;;19.05;13.88;;;;;;;8.66;64.24;100555.97;10454929;28;20916;-61
2023/04/17 04:47:55;;;;;;;17.45;14.77;;;;;;;8.68;64.31;100554.16;10450494;28;20400;-62
2023/04/17 04:52:57;;;;;;;17.25;14.35;;;;;;;8.79;64.14;100564.13;10439220;28;20419;-61
2023/04/17 04:58:25;;;;;;;21.92;15.00;;;;;;;8.78;64.13;100557.22;10465431;28;20052;-61
2023/04/17 05:03:30;;;;;;;18.77;13.95;;;;;;;8.86;64.14;100560.34;10452202;28;20462;-62
2023/04/17 05:08:34;;;;;;;16.48;13.70;;;;;;;8.84;64.14;100564.78;10487170;28;20507;-61
2023/04/17 05:13:43;;;;;;;18.38;14.60;;;;;;;8.93;64.28;100568.75;10452351;28;20044;-62
2023/04/17 05:18:59;;;;;;;19.05;14.57;;;;;;;9.11;63.86;100573.19;10453525;28;20036;-61
2023/04/17 05:24:28;;;;;;;20.20;15.32;;;;;;;9.21;63.68;100572.72;10473787;28;20068;-62
2023/04/17 05:29:31;;;;;;;19.80;16.05;;;;;;;9.34;63.46;100579.06;10462393;28;21151;-61
2023/04/17 05:34:34;;;;;;;22.02;17.75;;;;;;;9.54;63.37;100572.97;10449329;28;20067;-62
2023/04/17 05:39:38;;;;;;;22.35;15.90;;;;;;;9.67;63.10;100573.31;10483481;28;20114;-63
2023/04/17 05:44:41;;;;;;;21.95;16.63;;;;;;;9.85;62.78;100569.84;10477791;28;20044;-63
2023/04/17 05:49:43;;;;;;;20.95;16.88;;;;;;;9.98;62.31;100574.41;10453512;28;20068;-61
2023/04/17 05:54:45;;;;;;;23.88;17.27;;;;;;;10.00;62.09;100583.03;10468145;28;20623;-61
2023/04/17 05:59:48;;;;;;;22.52;17.40;;;;;;;10.16;61.71;100573.53;10470817;28;20463;-61
2023/04/17 06:04:50;;;;;;;21.23;17.27;;;;;;;10.34;61.54;100582.25;10467393;28;20405;-62
2023/04/17 06:09:53;;;;;;;22.17;17.85;;;;;;;10.38;61.25;100586.41;10454766;28;20122;-61
2023/04/17 06:14:57;;;;;;;25.42;19.48;;;;;;;10.63;60.74;100588.66;10478560;28;20757;-61
2023/04/17 06:19:59;;;;;;;29.10;20.60;;;;;;;10.77;60.43;100591.44;10487531;27;20033;-61
2023/04/17 06:25:02;;;;;;;17.70;15.55;;;;;;;10.91;60.77;100589.84;10456507;28;20514;-61
2023/04/17 06:30:05;;;;;;;25.20;17.80;;;;;;;10.95;60.55;100593.97;10446241;28;20044;-61
2023/04/17 06:35:19;;;;;;;21.88;16.88;;;;;;;11.08;60.22;100595.09;10455348;28;20090;-62
2023/04/17 06:40:27;;;;;;;23.52;18.77;;;;;;;11.19;59.84;100600.59;10455111;28;20067;-62
2023/04/17 06:45:28;;;;;;;23.30;19.50;;;;;;;11.36;59.52;100596.31;10452803;28;20182;-62
2023/04/17 06:50:30;;;;;;;26.70;22.95;;;;;;;11.48;58.57;100593.03;10463148;28;20058;-62
2023/04/17 06:55:32;;;;;;;27.90;22.10;;;;;;;11.68;58.36;100596.25;10465898;28;20053;-62
2023/04/17 07:00:34;;;;;;;27.10;21.55;;;;;;;12.12;57.51;100604.34;10467950;28;20059;-62
2023/04/17 07:05:36;;;;;;;25.98;20.77;;;;;;;12.61;56.39;100607.69;10470838;28;20045;-62
2023/04/17 07:10:37;;;;;;;20.80;18.20;;;;;;;12.92;55.98;100605.81;10475972;28;20093;-62
2023/04/17 07:15:39;;;;;;;20.40;18.00;;;;;;;12.78;55.31;100615.44;10466847;28;20040;-62
2023/04/17 07:20:41;;;;;;;21.52;17.00;;;;;;;12.48;55.62;100618.03;10473246;28;20069;-62
2023/04/17 07:25:43;;;;;;;21.52;17.77;;;;;;;12.23;55.43;100622.94;10454654;28;20037;-62
2023/04/17 07:30:45;;;;;;;22.50;17.23;;;;;;;12.28;55.64;100620.94;10468300;28;20054;-62
2023/04/17 07:35:47;;;;;;;22.48;17.80;;;;;;;12.62;55.49;100614.66;10471966;28;20139;-62
2023/04/17 07:40:49;;;;;;;19.73;15.57;;;;;;;12.88;53.91;100627.94;10468474;28;20052;-62
2023/04/17 07:45:50;;;;;;;19.30;13.85;;;;;;;12.47;53.67;100626.84;10470140;28;20057;-63
2023/04/17 07:50:52;;;;;;;18.08;13.50;;;;;;;12.59;53.82;100620.91;10466030;28;20288;-62
2023/04/17 07:55:54;;;;;;;16.40;12.88;;;;;;;12.71;52.85;100627.22;10469442;28;20375;-62
2023/04/17 08:00:56;;;;;;;16.60;12.50;;;;;;;12.79;52.81;100625.00;10469882;28;20044;-62
2023/04/17 08:05:58;;;;;;;18.98;12.82;;;;;;;12.96;53.04;100628.31;10471114;28;20140;-62
2023/04/17 08:11:00;;;;;;;14.00;11.73;;;;;;;12.85;52.31;100628.13;10466690;28;20524;-62
2023/04/17 08:16:03;;;;;;;13.95;11.88;;;;;;;12.82;51.89;100646.66;10465816;28;20057;-62
2023/04/17 08:21:07;;;;;;;15.25;12.15;;;;;;;12.70;52.05;100642.13;10461047;28;20419;-62
2023/04/17 08:26:09;;;;;;;15.48;12.02;;;;;;;12.67;52.26;100644.94;10461737;28;20515;-62
2023/04/17 08:31:12;;;;;;;15.25;12.07;;;;;;;12.71;52.19;100648.22;10489975;28;20049;-62
2023/04/17 08:36:14;;;;;;;16.42;12.65;;;;;;;12.70;52.57;100664.91;10464461;28;20122;-62
2023/04/17 08:41:20;;;;;;;16.92;12.35;;;;;;;12.76;52.00;100654.88;10445860;28;20044;-62
2023/04/17 08:46:23;;;;;;;16.17;13.20;;;;;;;12.73;52.68;100660.31;10468571;28;20155;-61
2023/04/17 08:51:26;;;;;;;16.30;13.10;;;;;;;12.70;52.05;100660.50;10458093;28;20054;-63
2023/04/17 08:56:29;;;;;;;17.10;12.55;;;;;;;12.77;52.37;100663.63;10457795;28;20048;-62
2023/04/17 09:01:33;;;;;;;15.80;12.32;;;;;;;12.90;51.84;100665.44;10461745;28;20181;-62
2023/04/17 09:06:52;;;;;;;14.98;11.57;;;;;;;12.98;50.93;100673.72;10468159;28;20045;-62
2023/04/17 09:12:09;;;;;;;15.05;11.20;;;;;;;12.98;50.96;100670.28;10465895;28;20051;-62
2023/04/17 09:17:12;;;;;;;15.07;11.45;;;;;;;13.94;49.61;100668.00;10465689;28;20493;-62
2023/04/17 09:22:19;;;;;;;13.65;11.18;;;;;;;14.68;47.79;100655.34;10459515;28;20150;-62
2023/04/17 09:27:21;;;;;;;14.73;10.80;;;;;;;15.15;46.08;100656.53;10466192;28;20041;-62
2023/04/17 09:32:27;;;;;;;11.35;9.10;;;;;;;14.45;45.10;100651.56;10460913;28;20068;-62
2023/04/17 09:37:51;;;;;;;11.82;8.65;;;;;;;14.71;43.20;100640.22;10465817;28;20041;-62
2023/04/17 09:42:58;;;;;;;12.90;8.23;;;;;;;15.25;40.29;100651.47;10468080;28;20114;-62
2023/04/17 09:48:04;;;;;;;11.15;8.38;;;;;;;15.78;40.93;100648.66;10474189;28;20420;-63
2023/04/17 09:53:07;;;;;;;12.20;9.18;;;;;;;16.13;40.24;100641.75;10471391;28;20123;-62
2023/04/17 09:58:10;;;;;;;12.68;8.45;;;;;;;15.96;40.82;100638.59;10473629;28;20415;-62
2023/04/17 10:03:14;;;;;;;12.13;8.52;;;;;;;16.20;39.82;100655.38;10470766;28;20036;-62
2023/04/17 10:08:16;;;;;;;11.68;8.40;;;;;;;15.86;40.27;100651.63;10469757;28;20121;-62
2023/04/17 10:13:20;;;;;;;11.43;7.93;;;;;;;15.25;39.94;100664.66;10456000;28;20040;-62
2023/04/17 10:18:23;;;;;;;13.68;8.70;;;;;;;15.11;40.62;100657.69;10454413;28;20047;-62
2023/04/17 10:23:29;;;;;;;14.15;8.27;;;;;;;15.55;40.06;100653.88;10482457;28;20049;-62
2023/04/17 10:28:48;;;;;;;10.40;7.20;;;;;;;14.91;40.17;100662.59;10453810;28;20143;-63
2023/04/17 10:33:52;;;;;;;11.48;8.05;;;;;;;14.93;41.01;100660.69;10452377;28;20052;-60
2023/04/17 10:39:14;;;;;;;12.93;7.70;;;;;;;15.22;40.26;100646.44;10472880;28;20048;-61
2023/04/17 10:44:17;;;;;;;10.13;7.60;;;;;;;14.99;40.15;100650.59;10468958;28;20063;-61
2023/04/17 10:49:21;;;;;;;10.57;7.80;;;;;;;14.69;41.54;100635.97;10470286;28;20386;-61
2023/04/17 10:54:23;;;;;;;8.27;6.50;;;;;;;15.17;40.81;100640.63;10481233;28;20052;-61
2023/04/17 10:59:28;;;;;;;9.48;6.85;;;;;;;14.46;40.99;100635.66;10471410;28;20373;-61
2023/04/17 11:04:32;;;;;;;9.43;6.43;;;;;;;14.89;40.82;100633.72;10466133;28;20071;-61
2023/04/17 11:09:35;;;;;;;8.80;5.70;;;;;;;14.50;40.23;100631.91;10471022;28;20764;-61
2023/04/17 11:14:39;;;;;;;9.93;5.18;;;;;;;14.61;39.90;100619.84;10484838;28;20284;-61
2023/04/17 11:19:41;;;;;;;6.22;4.95;;;;;;;14.47;39.81;100620.72;10469259;28;20041;-61
2023/04/17 11:24:49;;;;;;;7.90;5.05;;;;;;;14.09;40.73;100625.78;10467249;28;20056;-61
2023/04/17 11:29:51;;;;;;;6.53;4.72;;;;;;;13.74;41.15;100627.97;10448548;28;20040;-61
2023/04/17 11:34:53;;;;;;;8.43;5.57;;;;;;;14.20;41.55;100620.69;10468454;28;20840;-60
2023/04/17 11:40:06;;;;;;;9.05;4.65;;;;;;;15.03;40.20;100607.31;10464427;28;20584;-60
2023/04/17 11:45:09;;;;;;;6.80;4.78;;;;;;;14.86;39.44;100612.03;10467812;28;20052;-60
2023/04/17 11:50:14;;;;;;;7.20;4.50;;;;;;;15.03;38.95;100615.19;10467197;28;20048;-60
2023/04/17 11:55:16;;;;;;;6.20;4.35;;;;;;;14.94;40.09;100617.63;10466551;28;20287;-60
2023/04/17 12:00:20;;;;;;;4.53;3.00;;;;;;;15.23;37.86;100625.22;10465052;28;20049;-61
2023/04/17 12:05:23;;;;;;;4.25;3.03;;;;;;;15.14;38.70;100625.84;10467826;28;20066;-61
2023/04/17 12:10:35;;;;;;;6.32;3.25;;;;;;;15.11;36.26;100622.59;10468223;28;20036;-60
2023/04/17 12:15:37;;;;;;;7.20;3.33;;;;;;;15.25;38.33;100618.06;10468649;28;20146;-61
2023/04/17 12:20:39;;;;;;;5.97;3.40;;;;;;;15.20;36.95;100616.69;10466139;28;20048;-60
2023/04/17 12:25:41;;;;;;;5.43;2.78;;;;;;;14.96;37.07;100621.81;10454313;28;20194;-61
2023/04/17 12:30:43;;;;;;;4.47;2.92;;;;;;;14.59;37.62;100627.84;10465832;28;20543;-60
2023/04/17 12:35:45;;;;;;;4.85;2.83;;;;;;;14.43;37.61;100633.22;10465919;28;20052;-60
2023/04/17 12:40:47;;;;;;;8.05;3.50;;;;;;;15.29;37.98;100624.81;10464596;28;20544;-61
2023/04/17 12:45:49;;;;;;;6.60;3.33;;;;;;;15.76;37.59;100611.00;10483877;28;20040;-61
2023/04/17 12:50:51;;;;;;;6.18;3.63;;;;;;;15.47;37.05;100608.69;10468357;28;20044;-60
2023/04/17 12:55:52;;;;;;;6.15;3.53;;;;;;;15.24;37.82;100612.91;10473985;28;20329;-61
2023/04/17 13:00:54;;;;;;;6.63;3.25;;;;;;;15.76;38.84;100608.38;10471856;28;20361;-62
2023/04/17 13:05:56;;;;;;;6.00;3.15;;;;;;;15.99;38.14;100602.31;10507450;28;20073;-61
2023/04/17 13:10:59;;;;;;;4.97;3.45;;;;;;;15.85;38.78;100596.34;10469050;28;20040;-61
2023/04/17 13:16:01;;;;;;;5.65;3.60;;;;;;;15.50;38.12;100592.69;10499748;28;20516;-62
2023/04/17 13:21:03;;;;;;;6.05;3.35;;;;;;;15.87;37.03;100587.38;10471832;28;20523;-61
2023/04/17 13:26:05;;;;;;;6.70;3.35;;;;;;;16.16;37.35;100578.19;10509215;28;20405;-61
2023/04/17 13:31:07;;;;;;;8.65;3.60;;;;;;;15.75;37.41;100582.13;10505272;28;20489;-61
2023/04/17 13:36:09;;;;;;;6.95;3.80;;;;;;;15.76;37.35;100568.81;10478983;28;20056;-60
2023/04/17 13:41:11;;;;;;;6.35;3.35;;;;;;;15.53;36.30;100574.03;10456702;28;20132;-60
2023/04/17 13:46:14;;;;;;;6.72;3.10;;;;;;;14.93;36.05;100576.41;10456450;28;20336;-60
2023/04/17 13:51:16;;;;;;;5.45;3.50;;;;;;;14.88;39.83;100574.06;10497640;28;20048;-60
2023/04/17 13:56:22;;;;;;;5.72;3.42;;;;;;;15.35;39.83;100558.50;10498679;28;20194;-60
2023/04/17 14:01:24;;;;;;;6.90;3.78;;;;;;;15.18;39.76;100558.00;10511334;28;20097;-60
2023/04/17 14:06:30;;;;;;;7.80;3.92;;;;;;;15.03;40.11;100561.66;10514512;28;20134;-60
2023/04/17 14:11:32;;;;;;;8.55;3.65;;;;;;;15.19;39.95;100554.41;10495804;28;20540;-60
2023/04/17 14:16:34;;;;;;;6.05;3.55;;;;;;;15.31;39.80;100562.31;10474387;28;20070;-63
2023/04/17 14:21:36;;;;;;;6.18;3.22;;;;;;;15.07;39.35;100553.47;10476164;28;20040;-63
2023/04/17 14:26:38;;;;;;;6.97;3.67;;;;;;;14.86;39.17;100564.63;10479193;28;20513;-59
2023/04/17 14:31:39;;;;;;;8.63;3.10;;;;;;;14.79;37.35;100552.78;10452534;28;20306;-59
2023/04/17 14:36:41;;;;;;;6.00;3.20;;;;;;;15.64;36.43;100548.59;10472034;28;20215;-59
2023/04/17 14:41:44;;;;;;;7.55;3.10;;;;;;;15.98;35.61;100537.31;10448255;28;20510;-60
2023/04/17 14:46:46;;;;;;;8.43;3.42;;;;;;;15.91;37.31;100545.78;10467762;28;20159;-60
2023/04/17 14:51:48;;;;;;;7.78;3.30;;;;;;;16.19;37.17;100535.75;10478238;28;20040;-59
2023/04/17 14:56:50;;;;;;;6.72;3.20;;;;;;;16.06;35.49;100531.50;10466628;28;20412;-60
2023/04/17 15:01:52;;;;;;;8.43;3.03;;;;;;;15.95;33.64;100529.63;10481907;28;20165;-60
2023/04/17 15:06:54;;;;;;;6.78;3.15;;;;;;;15.58;32.77;100535.00;10473813;28;20433;-60
2023/04/17 15:11:56;;;;;;;6.38;3.20;;;;;;;15.10;32.93;100528.69;10465732;28;20063;-59
2023/04/17 15:17:01;;;;;;;7.03;3.65;;;;;;;14.74;32.86;100550.47;10470076;28;20095;-60
2023/04/17 15:22:03;;;;;;;6.18;3.47;;;;;;;14.93;32.61;100542.16;10453515;28;20147;-59
2023/04/17 15:27:04;;;;;;;8.80;3.63;;;;;;;14.65;32.78;100544.97;10469356;28;20053;-60
2023/04/17 15:32:06;;;;;;;5.40;3.33;;;;;;;14.76;33.58;100539.84;10483062;28;20056;-59
2023/04/17 15:37:10;;;;;;;6.47;3.83;;;;;;;14.66;33.82;100536.97;10472652;28;20052;-59
2023/04/17 15:42:11;;;;;;;9.48;3.63;;;;;;;14.44;34.42;100553.31;10500404;28;20642;-59
2023/04/17 15:47:13;;;;;;;9.70;3.92;;;;;;;14.09;34.65;100549.50;10481837;28;20142;-59
2023/04/17 15:52:15;;;;;;;10.32;4.40;;;;;;;14.02;35.09;100548.22;10467983;28;20462;-60
2023/04/17 15:57:17;;;;;;;7.90;3.58;;;;;;;13.74;34.85;100535.13;10471194;28;20499;-59
2023/04/17 16:02:19;;;;;;;5.72;3.85;;;;;;;13.78;35.09;100549.75;10466816;28;20048;-59
2023/04/17 16:07:22;;;;;;;8.48;4.07;;;;;;;13.82;35.20;100539.91;10452063;28;20074;-60
2023/04/17 16:12:26;;;;;;;7.07;4.03;;;;;;;13.63;34.83;100543.72;10480903;28;21639;-60
2023/04/17 16:17:28;;;;;;;7.05;3.63;;;;;;;13.67;35.54;100536.47;10471775;28;20529;-60
2023/04/17 16:22:30;;;;;;;10.82;4.00;;;;;;;13.78;36.12;100541.88;10479244;28;20048;-59
2023/04/17 16:27:32;;;;;;;7.75;3.70;;;;;;;13.76;35.06;100549.00;10468568;28;20500;-60
2023/04/17 16:32:34;;;;;;;10.77;4.00;;;;;;;13.85;35.84;100551.06;10484805;28;20455;-60
2023/04/17 16:37:36;;;;;;;7.15;3.90;;;;;;;13.70;34.99;100549.41;10472364;28;20054;-60
2023/04/17 16:42:39;;;;;;;10.43;4.25;;;;;;;13.70;35.01;100549.41;10465401;28;20048;-60
2023/04/17 16:47:41;;;;;;;8.63;4.05;;;;;;;13.66;34.89;100543.50;10466634;28;20501;-60
2023/04/17 16:52:43;;;;;;;8.63;3.70;;;;;;;13.82;35.15;100551.25;10484873;28;20560;-60
2023/04/17 16:57:46;;;;;;;7.07;4.03;;;;;;;13.84;34.91;100546.75;10470300;28;20310;-60
2023/04/17 17:02:48;;;;;;;14.02;4.80;;;;;;;13.75;35.22;100547.34;10454557;28;20049;-60
2023/04/17 17:07:50;;;;;;;6.25;3.83;;;;;;;13.85;35.33;100552.84;10489425;28;20148;-60
2023/04/17 17:12:52;;;;;;;9.85;4.22;;;;;;;13.96;35.88;100555.66;10472998;28;20043;-60
2023/04/17 17:17:54;;;;;;;9.32;4.18;;;;;;;13.96;35.56;100556.50;10479210;28;20056;-60
2023/04/17 17:22:56;;;;;;;9.52;4.35;;;;;;;14.00;35.48;100547.47;10450640;28;20424;-60
2023/04/17 17:27:58;;;;;;;11.15;4.10;;;;;;;14.17;35.60;100560.38;10471135;28;20055;-62
2023/04/17 17:33:01;;;;;;;11.18;4.35;;;;;;;14.20;35.89;100559.34;10472915;28;20190;-61
2023/04/17 17:38:02;;;;;;;9.35;3.92;;;;;;;14.10;36.86;100561.72;10450984;28;20078;-61
2023/04/17 17:43:05;;;;;;;7.80;4.10;;;;;;;14.12;36.49;100557.22;10474269;28;20051;-60
2023/04/17 17:48:08;;;;;;;8.45;4.45;;;;;;;13.97;37.39;100557.34;10476268;28;20048;-60
2023/04/17 17:53:10;;;;;;;12.55;4.55;;;;;;;13.88;38.67;100556.13;10456223;28;20040;-60
2023/04/17 17:58:12;;;;;;;9.00;4.07;;;;;;;13.74;37.16;100561.41;10488299;28;20335;-60
2023/04/17 18:03:15;;;;;;;7.65;4.07;;;;;;;13.62;37.13;100560.41;10468439;28;20044;-60
2023/04/17 18:08:17;;;;;;;11.30;4.25;;;;;;;13.53;37.01;100565.41;10476460;28;20047;-60
2023/04/17 18:13:19;;;;;;;10.10;4.38;;;;;;;13.47;37.53;100569.25;10475847;28;20131;-60
2023/04/17 18:18:21;;;;;;;7.95;4.13;;;;;;;13.42;38.59;100570.41;10482217;28;20049;-60
2023/04/17 18:23:23;;;;;;;10.57;4.72;;;;;;;13.30;38.54;100576.44;10505503;28;20127;-61
2023/04/17 18:28:25;;;;;;;8.85;4.60;;;;;;;13.28;38.57;100579.16;10478784;28;20423;-60
2023/04/17 18:33:27;;;;;;;7.78;4.80;;;;;;;13.04;37.44;100579.78;10456587;28;20122;-61
2023/04/17 18:38:29;;;;;;;8.38;4.72;;;;;;;13.04;38.77;100588.50;10471435;28;20083;-59
2023/04/17 18:43:31;;;;;;;9.88;4.35;;;;;;;12.98;38.75;100594.94;10469903;28;20084;-59
2023/04/17 18:48:33;;;;;;;10.57;4.55;;;;;;;12.91;39.55;100595.41;10436867;28;20300;-60
2023/04/17 18:53:35;;;;;;;11.65;4.55;;;;;;;12.89;39.25;100598.13;10467229;28;20049;-60
2023/04/17 18:58:39;;;;;;;9.70;4.85;;;;;;;12.86;38.98;100600.91;10470670;28;20092;-59
2023/04/17 19:03:41;;;;;;;8.20;4.70;;;;;;;12.59;39.11;100601.69;10470484;28;20040;-60
2023/04/17 19:08:43;;;;;;;10.00;5.32;;;;;;;12.41;38.63;100594.88;10454307;28;21796;-61
2023/04/17 19:13:45;;;;;;;9.77;5.30;;;;;;;12.32;38.55;100601.47;10476730;28;20052;-61
2023/04/17 19:18:46;;;;;;;11.02;6.10;;;;;;;12.37;39.27;100609.09;10482754;28;20044;-61
2023/04/17 19:23:50;;;;;;;11.57;5.43;;;;;;;12.38;39.24;100610.75;10473441;28;20036;-60
2023/04/17 19:28:52;;;;;;;11.05;4.95;;;;;;;12.25;38.96;100615.84;10474989;28;20499;-61
2023/04/17 19:33:54;;;;;;;12.20;4.70;;;;;;;12.33;38.68;100613.66;10483932;28;20040;-60
2023/04/17 19:38:58;;;;;;;11.63;5.25;;;;;;;12.22;39.17;100617.78;10469716;28;20041;-60
2023/04/17 19:44:00;;;;;;;10.95;5.00;;;;;;;12.12;39.69;100617.44;10454961;28;20106;-60
2023/04/17 19:49:02;;;;;;;8.05;5.00;;;;;;;11.93;39.39;100632.47;10482159;28;20048;-61
2023/04/17 19:54:04;;;;;;;8.32;4.63;;;;;;;11.62;40.56;100624.59;10462803;28;20196;-62
2023/04/17 19:59:10;;;;;;;11.02;5.03;;;;;;;11.37;40.97;100621.53;10468674;28;20040;-60
2023/04/17 20:04:15;;;;;;;13.60;5.45;;;;;;;11.11;41.24;100626.34;10468217;28;20054;-60
2023/04/17 20:09:17;;;;;;;10.18;5.22;;;;;;;11.02;41.66;100624.16;10471573;28;20432;-60
2023/04/17 20:14:20;;;;;;;9.93;5.20;;;;;;;10.89;41.24;100632.72;10465096;28;20040;-60
2023/04/17 20:19:22;;;;;;;10.90;5.40;;;;;;;10.66;42.32;100631.25;10474583;28;20043;-60
2023/04/17 20:24:24;;;;;;;10.18;5.43;;;;;;;10.59;41.22;100629.84;10473427;28;20098;-60
2023/04/17 20:29:26;;;;;;;12.27;5.22;;;;;;;10.48;41.43;100629.53;10464427;28;20041;-60
2023/04/17 20:34:33;;;;;;;9.25;5.13;;;;;;;10.36;41.30;100627.47;10482770;28;20164;-61
2023/04/17 20:39:35;;;;;;;8.55;5.47;;;;;;;10.21;42.86;100622.97;10469339;28;20053;-60
2023/04/17 20:44:37;;;;;;;15.88;5.97;;;;;;;10.12;43.14;100629.47;10480741;28;20044;-60
2023/04/17 20:49:39;;;;;;;14.77;5.97;;;;;;;9.99;43.37;100633.56;10468339;28;20219;-61
2023/04/17 20:54:41;;;;;;;9.82;5.63;;;;;;;9.86;43.93;100629.00;10468802;28;20037;-60
2023/04/17 20:59:43;;;;;;;8.55;5.30;;;;;;;9.71;44.49;100630.53;10470908;28;20707;-60
2023/04/17 21:04:45;;;;;;;14.25;6.35;;;;;;;9.65;44.41;100629.00;10469430;28;20425;-61
2023/04/17 21:09:47;;;;;;;13.80;7.70;;;;;;;9.63;44.70;100630.84;10468495;28;20192;-61
2023/04/17 21:14:49;;;;;;;16.08;6.63;;;;;;;9.52;45.20;100630.47;10456495;28;20051;-61
2023/04/17 21:19:51;;;;;;;13.02;7.68;;;;;;;9.48;45.70;100628.09;10466852;28;20409;-61
2023/04/17 21:24:52;;;;;;;12.90;7.43;;;;;;;9.40;46.22;100625.78;10468819;28;20044;-60
2023/04/17 21:29:54;;;;;;;14.90;9.18;;;;;;;9.24;46.80;100622.16;10452912;28;20043;-61
2023/04/17 21:34:56;;;;;;;13.43;8.52;;;;;;;9.11;47.58;100626.22;10466982;28;20041;-61
2023/04/17 21:39:58;;;;;;;12.52;7.35;;;;;;;9.03;48.13;100627.44;10473632;28;20078;-61
2023/04/17 21:45:00;;;;;;;11.80;7.90;;;;;;;8.92;48.21;100624.44;10474516;28;20051;-61
2023/04/17 21:50:02;;;;;;;17.60;8.98;;;;;;;8.77;48.34;100623.34;10492838;28;20044;-61
2023/04/17 21:55:06;;;;;;;13.65;7.82;;;;;;;8.68;49.10;100624.56;10475459;28;20124;-61
2023/04/17 22:00:11;;;;;;;15.02;7.45;;;;;;;8.55;49.05;100628.56;10461042;28;20135;-61
2023/04/17 22:05:13;;;;;;;15.15;8.77;;;;;;;8.42;49.52;100624.78;10476408;28;20036;-60
2023/04/17 22:10:15;;;;;;;14.15;9.10;;;;;;;8.32;49.89;100622.59;10480256;28;20048;-61
2023/04/17 22:15:17;;;;;;;16.15;7.10;;;;;;;8.18;50.17;100630.09;10475730;28;20561;-61
2023/04/17 22:20:19;;;;;;;17.98;8.07;;;;;;;8.06;50.49;100630.53;10474430;28;20411;-61
2023/04/17 22:25:21;;;;;;;11.90;7.97;;;;;;;7.96;50.71;100633.47;10475988;28;20040;-61
2023/04/17 22:30:23;;;;;;;12.18;7.10;;;;;;;7.83;50.93;100634.84;10457467;28;20054;-61
2023/04/17 22:35:25;;;;;;;10.90;6.45;;;;;;;7.72;51.68;100630.94;10476095;28;20098;-61
2023/04/17 22:40:28;;;;;;;12.15;7.03;;;;;;;7.67;51.68;100635.47;10474559;28;20048;-61
2023/04/17 22:45:30;;;;;;;11.32;7.05;;;;;;;7.62;51.91;100632.19;10456107;28;20052;-61
2023/04/17 22:50:33;;;;;;;13.38;7.10;;;;;;;7.51;52.13;100631.75;10471979;28;20064;-61
2023/04/17 22:55:34;;;;;;;9.27;6.88;;;;;;;7.42;52.44;100632.91;10474580;28;20443;-61
2023/04/17 23:00:36;;;;;;;14.10;6.82;;;;;;;7.31;52.57;100634.19;10471720;28;20044;-61